Time;durP1;ratioP1;P1;durP2;ratioP2;P2;SDS_P1;SDS_P2;PMS_P1;PMS_P2;Temp;Humidity;BMP_temperature;BMP_pressure;BME280_temperature;BME280_humidity;BME280_pressure;Samples;Min_cycle;Max_cycle;Signal;HPM_P1;HPM_P2
2022/03/27 00:01:41;;;;;;;25.10;2.50;;;;;;;0.94;54.02;98843.21;104928;1273;74376;-28
2022/03/27 00:04:11;;;;;;;7.20;2.00;;;;;;;0.92;53.66;98836.31;104815;1274;61179;-27
2022/03/27 00:07:00;;;;;;;11.50;2.00;;;;;;;0.93;53.73;98842.06;104790;1274;61115;-27
2022/03/27 00:09:30;;;;;;;10.40;1.40;;;;;;;0.84;54.35;98836.65;104747;1274;75273;-27
2022/03/27 00:12:01;;;;;;;9.80;2.30;;;;;;;0.77;54.64;98835.94;104725;1274;75844;-28
2022/03/27 00:14:31;;;;;;;4.40;1.70;;;;;;;0.76;54.54;98854.97;104877;1274;73383;-28
2022/03/27 00:17:03;;;;;;;7.70;1.80;;;;;;;0.72;54.24;98845.70;104774;1274;61043;-28
2022/03/27 00:19:35;;;;;;;7.20;1.80;;;;;;;0.74;53.73;98859.64;104647;1274;61115;-27
2022/03/27 00:22:05;;;;;;;2.60;1.20;;;;;;;0.69;54.10;98855.25;104855;1272;75769;-28
2022/03/27 00:24:34;;;;;;;6.80;1.60;;;;;;;0.63;54.48;98869.34;105118;1274;76419;-28
2022/03/27 00:27:04;;;;;;;8.30;1.80;;;;;;;0.61;54.46;98872.36;104961;1274;73453;-27
2022/03/27 00:29:33;;;;;;;4.40;1.80;;;;;;;0.59;54.49;98869.54;104841;1274;61023;-28
2022/03/27 00:32:04;;;;;;;6.00;1.90;;;;;;;0.57;54.42;98871.67;105133;1274;61133;-27
2022/03/27 00:34:34;;;;;;;10.90;2.30;;;;;;;0.54;54.68;98868.39;104659;1274;74357;-27
2022/03/27 00:37:04;;;;;;;6.50;1.70;;;;;;;0.50;54.89;98871.79;105149;1274;77280;-28
2022/03/27 00:39:34;;;;;;;9.40;1.70;;;;;;;0.47;54.85;98881.98;105061;1274;74602;-27
2022/03/27 00:42:05;;;;;;;3.80;1.40;;;;;;;0.36;55.86;98884.48;104907;1272;61154;-27
2022/03/27 00:44:36;;;;;;;3.80;1.40;;;;;;;0.30;55.96;98895.85;104794;1274;61224;-27
2022/03/27 00:47:07;;;;;;;8.70;1.60;;;;;;;0.27;55.74;98895.27;104856;1274;75557;-28
2022/03/27 00:49:37;;;;;;;2.10;1.20;;;;;;;0.26;55.48;98894.11;104607;1274;76150;-28
2022/03/27 00:52:07;;;;;;;7.10;1.50;;;;;;;0.27;55.53;98895.98;105028;1274;73288;-27
2022/03/27 00:54:36;;;;;;;15.30;2.10;;;;;;;0.28;55.06;98893.38;104826;1274;61153;-28
2022/03/27 00:57:07;;;;;;;2.40;1.30;;;;;;;0.28;55.03;98910.27;104796;1274;61153;-27
2022/03/27 00:59:37;;;;;;;11.90;2.30;;;;;;;0.22;54.76;98908.66;104662;1274;75563;-28
2022/03/27 01:02:06;;;;;;;2.30;1.20;;;;;;;0.19;54.71;98914.92;104808;1274;75937;-27
2022/03/27 01:04:39;;;;;;;4.70;1.60;;;;;;;0.18;54.19;98920.44;104828;1274;74598;-27
2022/03/27 01:07:09;;;;;;;9.00;2.10;;;;;;;0.20;53.73;98921.72;104763;1274;61098;-27
2022/03/27 01:09:40;;;;;;;9.10;1.80;;;;;;;0.21;53.13;98919.97;105123;1271;60998;-27
2022/03/27 01:12:22;;;;;;;5.20;1.40;;;;;;;0.18;52.57;98922.63;104874;1274;75560;-28
2022/03/27 01:14:53;;;;;;;8.00;1.50;;;;;;;0.25;51.91;98928.34;105075;1274;76502;-27
2022/03/27 01:17:25;;;;;;;10.10;1.60;;;;;;;0.25;51.62;98925.07;104697;1277;74179;-28
2022/03/27 01:19:55;;;;;;;8.20;1.50;;;;;;;0.21;51.40;98930.70;104670;1274;61092;-27
2022/03/27 01:22:24;;;;;;;4.80;1.60;;;;;;;0.25;51.02;98937.05;104937;1275;61153;-28
2022/03/27 01:24:54;;;;;;;16.70;1.90;;;;;;;0.22;51.38;98941.95;104898;1274;75530;-28
2022/03/27 01:27:24;;;;;;;8.80;1.50;;;;;;;0.11;52.17;98962.33;104777;1271;75981;-27
2022/03/27 01:29:55;;;;;;;3.80;1.30;;;;;;;0.10;52.18;98959.83;104813;1274;76167;-27
2022/03/27 01:32:25;;;;;;;5.90;1.50;;;;;;;0.04;53.08;98967.06;104631;1274;61136;-27
2022/03/27 01:34:56;;;;;;;3.10;1.60;;;;;;;-0.02;53.96;98971.57;104738;1273;61831;-27
2022/03/27 01:37:26;;;;;;;4.20;1.90;;;;;;;-0.13;54.75;98971.48;104789;1274;74378;-28
2022/03/27 01:39:55;;;;;;;3.00;1.50;;;;;;;-0.20;55.55;98975.98;104796;1274;74962;-27
2022/03/27 01:42:25;;;;;;;3.80;1.20;;;;;;;-0.25;56.13;98973.13;104892;1274;73512;-27
2022/03/27 01:44:55;;;;;;;4.30;1.40;;;;;;;-0.29;56.57;98975.00;104747;1274;61071;-27
2022/03/27 01:47:30;;;;;;;5.80;2.10;;;;;;;-0.35;56.69;98979.30;104880;1274;61032;-28
2022/03/27 01:50:04;;;;;;;5.40;1.90;;;;;;;-0.38;56.90;98980.80;105033;1273;75391;-27
2022/03/27 01:52:34;;;;;;;3.60;1.50;;;;;;;-0.36;56.41;98974.89;104792;1274;76044;-27
2022/03/27 01:55:16;;;;;;;4.40;1.70;;;;;;;-0.36;56.69;98983.42;105124;1274;73637;-28
2022/03/27 01:57:46;;;;;;;4.20;2.00;;;;;;;-0.37;56.90;98982.45;104699;1274;61083;-28
2022/03/27 02:00:15;;;;;;;5.30;1.60;;;;;;;-0.38;56.61;98986.57;104775;1274;61168;-28
2022/03/27 02:02:46;;;;;;;6.40;1.80;;;;;;;-0.39;56.88;98981.83;104650;1272;74158;-28
2022/03/27 02:05:16;;;;;;;2.00;1.20;;;;;;;-0.43;57.11;98986.09;104773;1274;74765;-28
2022/03/27 02:07:50;;;;;;;6.20;1.80;;;;;;;-0.47;57.49;99003.47;104808;1274;74459;-28
2022/03/27 02:10:20;;;;;;;3.50;1.60;;;;;;;-0.46;56.84;98980.05;104853;1274;61246;-28
2022/03/27 02:12:50;;;;;;;7.30;1.90;;;;;;;-0.45;56.92;99003.90;104918;1274;61160;-29
2022/03/27 02:15:19;;;;;;;3.20;1.50;;;;;;;-0.48;56.93;99007.27;104924;1274;75561;-29
2022/03/27 02:17:50;;;;;;;3.50;1.00;;;;;;;-0.52;57.09;99012.69;104895;1274;76314;-27
2022/03/27 02:20:19;;;;;;;4.00;1.70;;;;;;;-0.58;57.25;99013.58;104805;1274;74374;-27
2022/03/27 02:22:49;;;;;;;8.60;1.40;;;;;;;-0.59;56.86;99011.39;104934;1274;61051;-27
2022/03/27 02:25:19;;;;;;;5.10;1.50;;;;;;;-0.57;56.64;99026.52;105047;1274;61067;-27
2022/03/27 02:27:49;;;;;;;9.10;2.30;;;;;;;-0.59;56.18;99018.39;104709;1274;75451;-27
2022/03/27 02:30:20;;;;;;;5.50;1.80;;;;;;;-0.55;55.30;99005.31;105024;1273;76007;-27
2022/03/27 02:32:49;;;;;;;6.10;1.40;;;;;;;-0.51;55.20;99013.84;104969;1274;73436;-27
2022/03/27 02:35:19;;;;;;;4.40;1.50;;;;;;;-0.54;55.34;99028.63;104787;1274;61253;-28
2022/03/27 02:37:49;;;;;;;4.70;1.40;;;;;;;-0.59;55.41;99030.67;104790;1274;61349;-28
2022/03/27 02:40:19;;;;;;;5.90;1.50;;;;;;;-0.61;55.04;99033.64;104782;1274;75608;-28
2022/03/27 02:42:48;;;;;;;4.90;1.90;;;;;;;-0.58;54.71;99040.01;104979;1274;75088;-27
2022/03/27 02:45:19;;;;;;;4.60;1.40;;;;;;;-0.59;54.67;99040.04;105147;1274;74427;-27
2022/03/27 02:47:49;;;;;;;5.40;1.20;;;;;;;-0.66;55.05;99050.86;105129;1274;61074;-28
2022/03/27 02:50:18;;;;;;;3.00;1.30;;;;;;;-0.66;55.29;99047.98;105102;1274;61058;-27
2022/03/27 02:52:48;;;;;;;6.70;1.50;;;;;;;-0.70;55.21;99060.21;104771;1274;76684;-27
2022/03/27 02:55:18;;;;;;;6.70;1.20;;;;;;;-0.72;54.61;99061.13;104927;1274;76052;-27
2022/03/27 02:57:48;;;;;;;5.10;1.60;;;;;;;-0.70;54.81;99058.52;104720;1274;74287;-27
2022/03/27 03:00:19;;;;;;;8.40;1.40;;;;;;;-0.76;55.10;99058.21;105029;1273;61055;-28
2022/03/27 03:02:50;;;;;;;3.40;1.20;;;;;;;-0.81;55.08;99062.77;104694;1275;61010;-27
2022/03/27 03:05:21;;;;;;;4.40;1.30;;;;;;;-0.82;55.12;99068.27;105112;1274;74246;-27
2022/03/27 03:07:51;;;;;;;5.90;1.50;;;;;;;-0.85;55.32;99068.73;104735;1274;75058;-27
2022/03/27 03:10:40;;;;;;;3.00;0.80;;;;;;;-0.81;54.93;99078.80;105075;1274;75561;-28
2022/03/27 03:13:11;;;;;;;7.10;1.30;;;;;;;-0.85;54.67;99081.67;105131;1274;60984;-27
2022/03/27 03:15:46;;;;;;;3.40;1.40;;;;;;;-0.80;54.49;99076.07;104871;1274;61035;-27
2022/03/27 03:18:16;;;;;;;6.60;2.20;;;;;;;-0.90;55.36;99088.86;104924;1274;74344;-27
2022/03/27 03:20:48;;;;;;;6.20;2.20;;;;;;;-1.00;55.89;99098.23;105091;1274;76127;-27
2022/03/27 03:23:37;;;;;;;9.20;1.40;;;;;;;-1.03;56.02;99100.86;104923;1274;75686;-27
2022/03/27 03:26:07;;;;;;;7.10;1.50;;;;;;;-1.08;56.39;99107.83;105085;1274;60971;-27
2022/03/27 03:28:37;;;;;;;4.90;1.40;;;;;;;-1.13;56.40;99115.00;105191;1274;61449;-27
2022/03/27 03:31:07;;;;;;;3.50;1.30;;;;;;;-1.10;55.81;99110.30;104895;1274;75555;-27
2022/03/27 03:33:37;;;;;;;7.30;1.40;;;;;;;-1.07;55.41;99117.34;105064;1274;76174;-28
2022/03/27 03:36:10;;;;;;;4.50;1.00;;;;;;;-1.02;54.99;99121.45;105055;1274;74188;-27
2022/03/27 03:38:40;;;;;;;10.00;1.10;;;;;;;-1.02;54.86;99122.81;104859;1274;61204;-27
2022/03/27 03:41:10;;;;;;;9.40;1.40;;;;;;;-0.96;54.47;99120.95;105103;1274;60952;-27
2022/03/27 03:43:41;;;;;;;7.90;1.20;;;;;;;-1.00;54.53;99132.46;105111;1274;75379;-27
2022/03/27 03:46:11;;;;;;;9.10;1.10;;;;;;;-1.02;54.72;99134.93;105159;1273;76204;-28
2022/03/27 03:48:44;;;;;;;4.00;1.20;;;;;;;-1.06;55.08;99144.41;105080;1274;74725;-28
2022/03/27 03:51:13;;;;;;;10.90;1.30;;;;;;;-1.11;55.13;99154.97;105032;1274;61092;-27
2022/03/27 03:53:43;;;;;;;4.60;1.30;;;;;;;-1.13;54.96;99154.86;104902;1274;61082;-27
2022/03/27 03:56:13;;;;;;;11.70;1.20;;;;;;;-1.08;54.25;99159.47;104874;1273;74428;-27
2022/03/27 03:58:43;;;;;;;4.70;1.10;;;;;;;-1.09;54.10;99145.52;105163;1271;75149;-27
2022/03/27 04:01:13;;;;;;;6.50;1.20;;;;;;;-1.10;53.66;99171.44;105006;1274;74165;-27
2022/03/27 04:03:43;;;;;;;7.30;1.10;;;;;;;-1.14;54.40;99179.09;105094;1271;61156;-27
2022/03/27 04:06:13;;;;;;;9.50;1.90;;;;;;;-1.24;54.43;99182.63;104716;1274;61045;-27
2022/03/27 04:08:42;;;;;;;7.80;1.60;;;;;;;-1.26;54.11;99179.63;105172;1272;74332;-29
2022/03/27 04:11:16;;;;;;;7.10;1.30;;;;;;;-1.32;54.22;99176.92;104937;1271;76108;-28
2022/03/27 04:13:47;;;;;;;4.50;1.10;;;;;;;-1.29;52.90;99184.48;104697;1274;74412;-28
2022/03/27 04:16:17;;;;;;;6.00;1.50;;;;;;;-1.32;52.30;99191.92;105087;1271;61213;-29
2022/03/27 04:18:47;;;;;;;5.70;1.40;;;;;;;-1.30;51.76;99200.52;105145;1271;61103;-28
2022/03/27 04:21:17;;;;;;;6.50;1.20;;;;;;;-1.34;52.48;99209.70;105124;1271;75553;-28
2022/03/27 04:23:47;;;;;;;8.60;1.50;;;;;;;-1.37;52.50;99205.52;105134;1271;74381;-28
2022/03/27 04:26:17;;;;;;;4.60;1.00;;;;;;;-1.38;52.28;99218.48;105096;1272;75392;-28
2022/03/27 04:28:47;;;;;;;3.00;0.90;;;;;;;-1.39;52.67;99224.14;104865;1271;61146;-28
2022/03/27 04:31:18;;;;;;;8.90;1.10;;;;;;;-1.31;52.07;99218.80;104673;1274;61100;-27
2022/03/27 04:33:49;;;;;;;16.70;1.20;;;;;;;-1.27;52.23;99220.36;105114;1271;74662;-27
2022/03/27 04:36:18;;;;;;;8.50;1.30;;;;;;;-1.23;52.23;99226.88;105112;1274;76267;-27
2022/03/27 04:38:48;;;;;;;5.80;1.10;;;;;;;-1.16;52.05;99235.20;105141;1271;74490;-27
2022/03/27 04:41:18;;;;;;;6.50;1.20;;;;;;;-1.04;52.29;99237.57;105115;1271;61057;-27
2022/03/27 04:43:48;;;;;;;5.60;0.90;;;;;;;-0.92;52.13;99242.51;105098;1271;61444;-27
2022/03/27 04:46:19;;;;;;;6.20;1.10;;;;;;;-0.83;51.39;99242.55;105144;1271;74800;-28
2022/03/27 04:48:49;;;;;;;2.50;0.60;;;;;;;-0.75;51.67;99253.90;105107;1271;76108;-27
2022/03/27 04:51:21;;;;;;;8.30;1.00;;;;;;;-0.61;51.81;99255.16;105102;1271;73573;-27
2022/03/27 04:53:50;;;;;;;2.30;0.60;;;;;;;-0.61;51.29;99258.58;104902;1271;61141;-27
2022/03/27 04:56:20;;;;;;;1.80;0.70;;;;;;;-0.53;51.46;99266.00;105006;1271;61063;-27
2022/03/27 04:58:51;;;;;;;6.60;1.00;;;;;;;-0.59;51.21;99270.10;105115;1271;74531;-28
2022/03/27 05:01:20;;;;;;;8.20;0.90;;;;;;;-0.61;51.28;99265.58;105184;1271;75770;-27
2022/03/27 05:03:50;;;;;;;2.50;1.20;;;;;;;-0.77;51.87;99277.64;105122;1274;73290;-27
2022/03/27 05:06:22;;;;;;;2.60;0.90;;;;;;;-0.83;52.16;99279.21;104925;1271;61870;-27
2022/03/27 05:08:52;;;;;;;4.00;0.90;;;;;;;-0.88;52.14;99285.48;104882;1271;61682;-27
2022/03/27 05:11:21;;;;;;;8.90;1.30;;;;;;;-0.87;52.31;99295.52;105043;1274;74722;-27
2022/03/27 05:13:51;;;;;;;1.60;0.70;;;;;;;-0.86;53.50;99290.89;104930;1274;75991;-27
2022/03/27 05:16:21;;;;;;;4.40;0.80;;;;;;;-0.89;54.53;99300.18;105132;1274;74465;-27
2022/03/27 05:18:51;;;;;;;2.20;0.90;;;;;;;-0.91;54.64;99301.44;105049;1274;61114;-27
2022/03/27 05:21:23;;;;;;;4.80;1.00;;;;;;;-1.03;54.23;99297.71;105124;1274;61154;-27
2022/03/27 05:24:12;;;;;;;8.60;1.30;;;;;;;-1.16;54.36;99300.29;105003;1274;76492;-27
2022/03/27 05:27:01;;;;;;;3.90;1.00;;;;;;;-1.28;54.25;99326.20;104825;1274;76124;-29
2022/03/27 05:29:32;;;;;;;2.30;0.80;;;;;;;-1.38;54.44;99325.44;104787;1274;75591;-27
2022/03/27 05:32:02;;;;;;;4.20;0.90;;;;;;;-1.42;54.65;99325.89;105138;1274;61143;-26
2022/03/27 05:34:32;;;;;;;2.50;0.80;;;;;;;-1.45;54.75;99330.41;105104;1271;61067;-27
2022/03/27 05:37:03;;;;;;;5.10;0.90;;;;;;;-1.45;54.92;99344.70;105091;1274;75416;-27
2022/03/27 05:39:33;;;;;;;8.20;1.20;;;;;;;-1.25;54.59;99350.63;104912;1274;74888;-27
2022/03/27 05:42:03;;;;;;;3.20;0.90;;;;;;;-1.18;53.76;99333.39;104857;1274;75390;-26
2022/03/27 05:44:34;;;;;;;4.60;0.80;;;;;;;-0.97;53.41;99338.27;104996;1274;61075;-27
2022/03/27 05:47:04;;;;;;;3.40;0.80;;;;;;;-0.90;52.90;99335.48;104845;1274;61062;-27
2022/03/27 05:49:34;;;;;;;2.60;0.90;;;;;;;-0.79;52.32;99346.07;104690;1274;75596;-27
2022/03/27 05:52:04;;;;;;;3.40;1.30;;;;;;;-0.63;52.54;99350.04;104977;1274;75020;-27
2022/03/27 05:54:34;;;;;;;3.30;1.20;;;;;;;-0.52;52.25;99352.45;104996;1274;74484;-27
2022/03/27 05:57:04;;;;;;;7.00;2.20;;;;;;;-0.51;52.05;99362.65;105126;1271;61138;-28
2022/03/27 05:59:34;;;;;;;1.60;0.90;;;;;;;-0.51;51.51;99358.89;104897;1274;61139;-29
2022/03/27 06:02:04;;;;;;;9.20;1.60;;;;;;;-0.50;51.30;99363.82;104991;1272;77041;-27
2022/03/27 06:04:34;;;;;;;2.00;1.10;;;;;;;-0.41;51.46;99369.49;105102;1274;76976;-27
2022/03/27 06:07:05;;;;;;;6.30;1.10;;;;;;;-0.44;51.89;99370.09;104927;1274;73439;-27
2022/03/27 06:09:51;;;;;;;2.40;0.90;;;;;;;-0.50;52.28;99370.47;105075;1274;61677;-27
2022/03/27 06:12:22;;;;;;;2.10;0.90;;;;;;;-0.69;52.82;99377.50;105077;1271;61179;-28
2022/03/27 06:14:56;;;;;;;3.20;1.20;;;;;;;-0.74;53.13;99393.52;104789;1274;75404;-28
2022/03/27 06:17:26;;;;;;;3.20;1.00;;;;;;;-0.83;52.81;99374.52;105085;1272;74953;-26
2022/03/27 06:20:10;;;;;;;2.30;1.00;;;;;;;-0.72;52.72;99396.00;104743;1274;75188;-27
2022/03/27 06:22:40;;;;;;;2.20;0.70;;;;;;;-0.67;51.95;99398.92;104646;1274;61127;-26
2022/03/27 06:25:18;;;;;;;1.10;0.50;;;;;;;-0.62;51.65;99382.55;104612;1271;61036;-26
2022/03/27 06:27:50;;;;;;;5.40;1.00;;;;;;;-0.47;51.40;99407.02;104701;1274;75613;-27
2022/03/27 06:30:22;;;;;;;5.20;1.40;;;;;;;-0.58;50.54;99413.67;104858;1272;75558;-27
2022/03/27 06:32:58;;;;;;;2.40;1.00;;;;;;;-0.81;51.00;99419.98;104734;1274;74214;-27
2022/03/27 06:35:27;;;;;;;3.10;0.60;;;;;;;-0.92;50.85;99423.88;104710;1271;61052;-28
2022/03/27 06:37:57;;;;;;;1.90;0.60;;;;;;;-0.97;50.65;99424.33;104821;1274;61132;-29
2022/03/27 06:40:27;;;;;;;2.70;1.00;;;;;;;-0.92;49.64;99420.12;104954;1274;73768;-27
2022/03/27 06:42:57;;;;;;;6.50;1.10;;;;;;;-0.72;49.26;99424.14;104782;1271;74844;-28
2022/03/27 06:45:26;;;;;;;3.30;0.90;;;;;;;-0.42;49.41;99438.95;104797;1271;74034;-28
2022/03/27 06:47:57;;;;;;;1.60;0.80;;;;;;;-0.18;48.61;99443.00;104854;1271;61120;-29
2022/03/27 06:50:27;;;;;;;1.20;0.80;;;;;;;-0.18;46.86;99411.25;104816;1272;63212;-29
2022/03/27 06:52:57;;;;;;;3.60;0.90;;;;;;;-0.30;45.03;99396.80;104779;1274;75606;-27
2022/03/27 06:55:27;;;;;;;1.10;0.70;;;;;;;-0.29;45.28;99419.10;104638;1274;76114;-28
2022/03/27 06:57:57;;;;;;;5.60;0.80;;;;;;;-0.52;44.82;99416.40;104812;1274;74217;-28
2022/03/27 07:03:16;;;;;;;1.50;0.90;;;;;;;-0.61;44.09;99444.61;105140;1271;61153;-27
2022/03/27 07:05:46;;;;;;;1.30;0.90;;;;;;;-0.64;44.70;99448.45;104843;1271;75618;-27
2022/03/27 07:08:17;;;;;;;2.60;1.00;;;;;;;-0.45;45.14;99454.89;104856;1271;76000;-28
2022/03/27 07:11:06;;;;;;;4.50;1.30;;;;;;;-0.11;44.85;99462.06;104805;1274;75353;-28
2022/03/27 07:13:36;;;;;;;3.60;0.90;;;;;;;0.32;44.88;99457.33;104859;1271;61144;-28
2022/03/27 07:16:33;;;;;;;1.50;1.00;;;;;;;0.46;44.64;99454.13;104810;1272;61154;-28
2022/03/27 07:19:03;;;;;;;2.90;1.10;;;;;;;0.73;44.84;99448.95;104822;1274;75031;-28
2022/03/27 07:21:32;;;;;;;3.50;0.90;;;;;;;0.79;47.57;99452.52;104646;1274;74879;-28
2022/03/27 07:24:03;;;;;;;1.40;0.60;;;;;;;0.47;49.10;99452.89;104785;1274;74563;-28
2022/03/27 07:26:33;;;;;;;1.70;0.70;;;;;;;0.07;49.27;99446.00;104613;1274;61189;-28
2022/03/27 07:29:04;;;;;;;1.30;0.70;;;;;;;-0.02;49.36;99452.09;104729;1274;61211;-28
2022/03/27 07:31:34;;;;;;;2.00;0.70;;;;;;;-0.13;49.87;99456.52;104797;1274;75524;-28
2022/03/27 07:34:04;;;;;;;4.30;0.80;;;;;;;-0.26;50.78;99469.38;104917;1274;73765;-28
2022/03/27 07:36:34;;;;;;;2.20;0.70;;;;;;;-0.36;51.01;99466.42;105126;1274;74210;-28
2022/03/27 07:39:04;;;;;;;1.10;0.60;;;;;;;-0.28;50.99;99476.59;105064;1273;60977;-28
2022/03/27 07:41:34;;;;;;;1.90;0.90;;;;;;;-0.19;51.21;99482.99;104802;1274;61127;-28
2022/03/27 07:44:04;;;;;;;1.50;0.70;;;;;;;0.05;49.74;99486.02;104792;1273;73580;-28
2022/03/27 07:46:34;;;;;;;3.10;0.60;;;;;;;0.26;49.07;99493.57;104709;1274;76103;-28
2022/03/27 07:49:06;;;;;;;1.00;0.80;;;;;;;0.11;47.92;99480.87;104784;1274;73225;-28
2022/03/27 07:51:37;;;;;;;3.80;1.60;;;;;;;0.05;47.45;99468.77;104456;1274;568470;-28
2022/03/27 07:54:07;;;;;;;1.90;0.70;;;;;;;0.20;46.98;99474.44;104891;1272;61147;-28
2022/03/27 07:56:37;;;;;;;1.30;0.60;;;;;;;0.37;47.01;99490.30;104739;1273;74658;-28
2022/03/27 07:59:07;;;;;;;7.10;0.80;;;;;;;0.40;46.82;99505.05;104828;1274;76101;-28
2022/03/27 08:01:37;;;;;;;1.20;0.60;;;;;;;0.34;46.57;99506.27;105020;1274;74705;-28
2022/03/27 08:04:08;;;;;;;2.70;0.80;;;;;;;0.73;45.50;99515.10;104775;1273;61340;-28
2022/03/27 08:06:39;;;;;;;2.00;1.20;;;;;;;1.01;41.71;99506.11;104788;1274;61594;-28
2022/03/27 08:09:09;;;;;;;1.30;0.70;;;;;;;0.68;45.69;99499.86;104863;1272;74564;-28
2022/03/27 08:11:42;;;;;;;2.90;0.60;;;;;;;0.55;47.75;99503.56;104756;1274;76023;-28
2022/03/27 08:14:13;;;;;;;1.00;0.90;;;;;;;0.62;47.82;99519.21;104623;1274;74297;-28
2022/03/27 08:16:43;;;;;;;0.70;0.60;;;;;;;0.43;46.39;99503.43;104861;1273;61046;-28
2022/03/27 08:19:13;;;;;;;0.40;0.40;;;;;;;0.29;47.04;99496.52;105155;1274;61121;-28
2022/03/27 08:21:49;;;;;;;1.70;0.50;;;;;;;0.77;47.91;99513.92;104814;1272;75349;-28
2022/03/27 08:24:19;;;;;;;2.70;0.80;;;;;;;0.96;45.92;99524.21;104830;1274;76007;-28
2022/03/27 08:26:56;;;;;;;2.80;0.80;;;;;;;0.97;45.80;99530.53;104828;1274;73367;-28
2022/03/27 08:29:31;;;;;;;1.10;0.60;;;;;;;0.76;45.87;99513.95;104725;1274;61147;-28
2022/03/27 08:32:02;;;;;;;0.70;0.60;;;;;;;1.08;45.22;99507.59;104459;1273;61138;-27
2022/03/27 08:34:33;;;;;;;3.80;0.70;;;;;;;1.14;43.63;99510.11;104591;1274;75596;-28
2022/03/27 08:37:05;;;;;;;2.30;0.60;;;;;;;0.89;43.25;99518.00;104756;1274;76022;-27
2022/03/27 08:39:35;;;;;;;0.60;0.40;;;;;;;1.06;43.52;99524.23;104708;1274;74410;-27
2022/03/27 08:42:05;;;;;;;1.40;0.80;;;;;;;0.96;43.51;99509.71;104737;1274;61169;-27
2022/03/27 08:44:37;;;;;;;1.40;0.70;;;;;;;0.81;43.33;99540.13;104658;1274;61157;-27
2022/03/27 08:47:29;;;;;;;2.90;0.60;;;;;;;0.99;45.10;99524.45;104736;1274;75648;-28
2022/03/27 08:50:19;;;;;;;0.60;0.50;;;;;;;0.82;47.82;99513.77;104742;1274;75779;-28
2022/03/27 08:53:00;;;;;;;2.70;0.80;;;;;;;0.50;47.91;99518.76;104983;1274;74769;-28
2022/03/27 08:55:38;;;;;;;0.60;0.60;;;;;;;0.69;47.61;99530.95;105091;1274;61042;-29
2022/03/27 08:58:09;;;;;;;3.70;0.90;;;;;;;1.00;46.07;99524.45;104914;1273;61156;-28
2022/03/27 09:00:47;;;;;;;2.60;0.60;;;;;;;1.24;44.52;99541.59;104784;1274;73052;-29
2022/03/27 09:03:19;;;;;;;3.50;0.80;;;;;;;1.28;43.87;99533.92;104755;1274;76232;-27
2022/03/27 09:05:49;;;;;;;1.50;0.70;;;;;;;1.31;43.10;99517.04;104612;1274;73368;-28
2022/03/27 09:08:19;;;;;;;0.90;0.60;;;;;;;1.08;43.18;99514.42;104801;1274;61172;-29
2022/03/27 09:10:56;;;;;;;0.70;0.40;;;;;;;1.03;43.37;99540.94;104808;1274;61524;-29
2022/03/27 09:13:25;;;;;;;1.40;0.70;;;;;;;1.18;44.31;99542.81;104777;1274;75527;-27
2022/03/27 09:16:04;;;;;;;2.30;1.00;;;;;;;1.22;45.26;99536.84;104795;1274;76330;-27
2022/03/27 09:18:52;;;;;;;4.20;0.90;;;;;;;1.03;46.10;99554.44;104738;1272;73136;-27
2022/03/27 09:21:23;;;;;;;1.10;0.80;;;;;;;0.98;47.31;99540.58;104828;1274;60998;-28
2022/03/27 09:24:00;;;;;;;3.30;1.00;;;;;;;0.83;46.89;99540.06;104649;1274;61154;-28
2022/03/27 09:26:32;;;;;;;1.50;0.90;;;;;;;0.94;46.51;99533.04;104723;1273;73767;-28
2022/03/27 09:29:10;;;;;;;5.70;0.60;;;;;;;1.16;46.81;99553.67;104800;1274;74089;-29
2022/03/27 09:31:48;;;;;;;2.00;0.80;;;;;;;1.25;45.61;99523.41;104776;1274;72729;-29
2022/03/27 09:34:27;;;;;;;4.10;0.80;;;;;;;1.04;44.41;99552.69;104590;1273;60975;-27
2022/03/27 09:37:00;;;;;;;2.80;1.00;;;;;;;1.17;44.90;99538.73;104677;1274;61076;-29
2022/03/27 09:39:43;;;;;;;1.30;0.80;;;;;;;1.36;44.93;99530.73;104690;1274;72638;-29
2022/03/27 09:42:16;;;;;;;3.00;1.20;;;;;;;2.10;44.31;99564.13;104653;1274;73253;-27
2022/03/27 09:45:15;;;;;;;1.60;0.60;;;;;;;1.82;43.46;99543.28;104762;1274;72981;-27
2022/03/27 09:47:48;;;;;;;1.00;0.90;;;;;;;1.63;43.00;99539.02;104902;1274;61042;-27
2022/03/27 09:50:30;;;;;;;2.60;0.70;;;;;;;1.64;43.32;99534.00;104741;1272;61141;-27
2022/03/27 09:53:28;;;;;;;4.30;1.00;;;;;;;1.72;43.15;99556.98;104742;1274;75246;-27
2022/03/27 09:56:01;;;;;;;1.30;0.90;;;;;;;1.77;42.83;99566.40;104871;1274;74825;-29
2022/03/27 09:58:40;;;;;;;4.30;0.80;;;;;;;1.66;43.00;99552.25;104905;1274;71948;-27
2022/03/27 10:01:12;;;;;;;1.80;0.90;;;;;;;1.98;42.55;99554.84;105026;1274;61099;-28
2022/03/27 10:04:02;;;;;;;3.90;1.30;;;;;;;2.04;42.89;99560.97;104622;1274;61046;-28
2022/03/27 10:06:38;;;;;;;4.50;0.90;;;;;;;2.23;42.64;99543.25;104818;1274;75317;-30
2022/03/27 10:09:13;;;;;;;4.40;1.00;;;;;;;1.98;40.85;99551.77;105099;1274;76182;-28
2022/03/27 10:11:53;;;;;;;3.00;0.70;;;;;;;2.01;41.83;99548.38;104952;1274;74264;-28
2022/03/27 10:14:23;;;;;;;2.40;0.70;;;;;;;2.29;41.09;99536.52;105082;1274;61124;-28
2022/03/27 10:16:53;;;;;;;1.90;0.60;;;;;;;2.39;40.50;99520.00;105015;1274;61112;-28
2022/03/27 10:19:33;;;;;;;2.10;1.00;;;;;;;2.87;40.90;99554.23;104880;1274;74681;-28
2022/03/27 10:22:05;;;;;;;2.80;1.20;;;;;;;3.30;39.75;99559.64;105123;1274;74543;-28
2022/03/27 10:24:34;;;;;;;3.40;0.70;;;;;;;3.25;38.42;99539.78;105079;1274;73398;-28
2022/03/27 10:27:04;;;;;;;1.50;0.70;;;;;;;2.91;38.29;99528.20;104911;1274;61185;-28
2022/03/27 10:29:34;;;;;;;2.90;0.80;;;;;;;3.15;38.47;99526.66;104913;1274;61140;-27
2022/03/27 10:32:05;;;;;;;3.10;0.80;;;;;;;3.05;37.59;99533.80;104785;1274;75571;-28
2022/03/27 10:34:48;;;;;;;4.10;1.30;;;;;;;3.20;37.29;99538.13;104679;1274;75183;-28
2022/03/27 10:37:32;;;;;;;2.40;0.90;;;;;;;3.58;37.48;99539.91;104669;1274;74507;-28
2022/03/27 10:40:06;;;;;;;2.00;0.80;;;;;;;3.90;39.17;99538.83;104608;1274;61035;-27
2022/03/27 10:42:58;;;;;;;4.10;0.90;;;;;;;3.90;39.35;99528.33;104755;1274;61128;-28
2022/03/27 10:45:30;;;;;;;1.20;0.60;;;;;;;3.57;40.48;99528.45;104981;1273;74553;-27
2022/03/27 10:48:16;;;;;;;4.50;0.70;;;;;;;3.38;39.34;99503.33;105083;1274;75804;-27
2022/03/27 10:50:54;;;;;;;3.10;0.60;;;;;;;3.74;39.13;99518.94;105074;1274;70429;-27
2022/03/27 10:53:25;;;;;;;2.40;0.90;;;;;;;3.89;37.80;99502.26;104844;1274;61277;-27
2022/03/27 10:55:56;;;;;;;0.90;0.50;;;;;;;3.71;37.28;99516.14;104615;1274;61162;-27
2022/03/27 10:58:39;;;;;;;5.70;1.10;;;;;;;3.97;38.45;99499.86;104656;1274;72842;-28
2022/03/27 11:01:10;;;;;;;1.00;0.40;;;;;;;3.99;36.21;99508.98;104795;1274;76414;-27
2022/03/27 11:04:09;;;;;;;0.80;0.70;;;;;;;4.19;34.70;99519.05;104713;1274;74180;-27
2022/03/27 11:06:39;;;;;;;1.60;0.60;;;;;;;3.80;34.40;99525.17;105079;1274;61033;-27
2022/03/27 11:09:28;;;;;;;2.60;0.90;;;;;;;3.42;33.40;99529.10;104968;1272;61074;-27
2022/03/27 11:11:58;;;;;;;3.90;0.80;;;;;;;4.29;34.68;99537.86;104950;1274;74633;-27
2022/03/27 11:14:57;;;;;;;0.90;0.60;;;;;;;4.52;34.57;99531.29;104845;1274;75708;-29
2022/03/27 11:17:33;;;;;;;1.50;0.70;;;;;;;4.36;33.67;99534.27;104610;1274;71695;-27
2022/03/27 11:20:08;;;;;;;1.80;0.30;;;;;;;4.36;34.03;99526.02;104728;1274;61176;-27
2022/03/27 11:22:44;;;;;;;2.30;0.40;;;;;;;4.57;34.93;99515.20;104646;1274;61145;-27
2022/03/27 11:25:39;;;;;;;1.40;0.80;;;;;;;4.51;33.42;99507.91;105104;1274;73744;-27
2022/03/27 11:28:20;;;;;;;2.20;0.60;;;;;;;4.61;32.00;99517.05;105127;1274;75874;-27
2022/03/27 11:30:51;;;;;;;1.70;0.70;;;;;;;4.19;31.12;99539.18;104827;1274;72649;-27
2022/03/27 11:33:23;;;;;;;2.80;0.70;;;;;;;4.50;31.53;99522.75;105083;1274;61121;-27
2022/03/27 11:36:07;;;;;;;4.90;0.70;;;;;;;4.09;31.94;99527.79;104814;1274;61007;-27
2022/03/27 11:38:54;;;;;;;3.80;0.80;;;;;;;4.47;32.88;99521.34;104736;1274;75616;-27
2022/03/27 11:41:30;;;;;;;1.70;0.70;;;;;;;4.67;32.82;99520.20;104753;1274;75840;-27
2022/03/27 11:45:06;;;;;;;5.40;0.60;;;;;;;4.93;32.26;99505.19;104823;1274;74429;-27
2022/03/27 11:47:19;;;;;;;2.50;0.80;;;;;;;4.50;33.26;99489.40;105101;1274;61058;-27
2022/03/27 11:49:50;;;;;;;2.40;0.70;;;;;;;4.59;33.57;99503.43;105071;1274;61170;-27
2022/03/27 11:52:21;;;;;;;2.50;0.80;;;;;;;4.57;33.17;99496.46;104686;1274;74451;-27
2022/03/27 11:55:08;;;;;;;1.00;0.60;;;;;;;4.56;31.38;99504.58;104727;1274;76113;-27
2022/03/27 11:57:45;;;;;;;1.70;0.70;;;;;;;4.21;30.81;99516.42;104624;1273;74426;-28
2022/03/27 12:00:15;;;;;;;2.50;0.70;;;;;;;4.27;31.12;99512.70;104623;1274;61023;-27